createdAt,value
2022-09-07T00:00:56.380Z,17.02
2022-09-07T00:03:25.998Z,17.13
2022-09-07T00:05:54.070Z,17.17
2022-09-07T00:08:24.027Z,17.15
2022-09-07T00:10:57.261Z,17.19
2022-09-07T00:13:28.980Z,17.18
2022-09-07T00:15:58.617Z,17.18
2022-09-07T00:18:26.964Z,17.15
2022-09-07T00:21:02.389Z,17.12
2022-09-07T00:23:31.652Z,16.98
2022-09-07T00:26:03.164Z,16.75
2022-09-07T00:28:31.883Z,16.60
2022-09-07T00:31:01.441Z,16.61
2022-09-07T00:33:29.890Z,16.72
2022-09-07T00:35:59.395Z,16.65
2022-09-07T00:38:27.500Z,16.72
2022-09-07T00:40:55.686Z,16.71
2022-09-07T00:43:32.643Z,16.79
2022-09-07T00:46:02.610Z,16.54
2022-09-07T00:48:35.676Z,16.52
2022-09-07T00:51:07.859Z,16.43
2022-09-07T00:53:39.169Z,16.31
2022-09-07T00:56:07.518Z,16.14
2022-09-07T00:58:38.021Z,16.17
2022-09-07T01:01:08.479Z,16.11
2022-09-07T01:03:41.229Z,16.28
2022-09-07T01:06:16.623Z,16.34
2022-09-07T01:08:46.139Z,16.40
2022-09-07T01:11:14.520Z,16.26
2022-09-07T01:13:44.991Z,16.05
2022-09-07T01:16:26.441Z,15.92
2022-09-07T01:19:05.115Z,15.84
2022-09-07T01:21:44.862Z,15.88
2022-09-07T01:24:42.679Z,15.92
2022-09-07T01:27:52.015Z,15.91
2022-09-07T01:30:24.146Z,15.88
2022-09-07T01:33:31.679Z,15.77
2022-09-07T01:36:11.362Z,15.62
2022-09-07T01:38:43.028Z,15.81
2022-09-07T01:41:17.662Z,15.60
2022-09-07T01:43:53.537Z,15.64
2022-09-07T01:46:28.065Z,15.54
2022-09-07T01:49:01.544Z,15.59
2022-09-07T01:51:34.590Z,15.85
2022-09-07T01:54:08.990Z,15.69
2022-09-07T01:56:41.415Z,15.66
2022-09-07T01:59:15.361Z,15.60
2022-09-07T02:01:51.164Z,15.62
2022-09-07T02:04:24.279Z,15.52
2022-09-07T02:06:59.644Z,15.65
2022-09-07T02:09:33.353Z,15.59
2022-09-07T02:12:03.860Z,15.61
2022-09-07T02:14:35.440Z,15.37
2022-09-07T02:17:08.561Z,15.48
2022-09-07T02:19:42.057Z,15.33
2022-09-07T02:22:14.304Z,15.25
2022-09-07T02:24:46.431Z,15.24
2022-09-07T02:27:18.523Z,15.15
2022-09-07T02:29:46.532Z,15.29
2022-09-07T02:32:15.841Z,15.27
2022-09-07T02:34:43.761Z,15.26
2022-09-07T02:37:13.355Z,15.28
2022-09-07T02:39:41.423Z,15.17
2022-09-07T02:42:10.356Z,15.14
2022-09-07T02:44:42.045Z,15.17
2022-09-07T02:47:22.687Z,15.11
2022-09-07T02:50:07.704Z,15.07
2022-09-07T02:52:45.825Z,15.02
2022-09-07T02:55:24.002Z,14.92
2022-09-07T02:58:02.096Z,14.79
2022-09-07T03:00:35.732Z,14.85
2022-09-07T03:03:16.743Z,15.08
2022-09-07T03:05:49.997Z,14.92
2022-09-07T03:08:21.245Z,14.96
2022-09-07T03:10:50.363Z,14.79
2022-09-07T03:13:22.792Z,14.85
2022-09-07T03:15:55.525Z,14.84
2022-09-07T03:18:26.797Z,14.99
2022-09-07T03:20:54.817Z,14.86
2022-09-07T03:23:22.726Z,14.95
2022-09-07T03:25:51.078Z,14.91
2022-09-07T03:28:19.031Z,14.74
2022-09-07T03:30:47.456Z,14.59
2022-09-07T03:33:16.795Z,14.53
2022-09-07T03:35:47.249Z,14.75
2022-09-07T03:38:15.165Z,14.74
2022-09-07T03:40:43.009Z,14.79
2022-09-07T03:43:10.915Z,14.66
2022-09-07T03:45:38.867Z,14.71
2022-09-07T03:48:06.903Z,14.64
2022-09-07T03:50:34.773Z,14.73
2022-09-07T03:53:03.990Z,14.71
2022-09-07T03:55:31.852Z,14.65
2022-09-07T03:57:59.887Z,14.71
2022-09-07T04:00:27.789Z,14.73
2022-09-07T04:02:55.776Z,14.70
2022-09-07T04:05:24.104Z,14.68
2022-09-07T04:07:52.500Z,14.62
2022-09-07T04:10:21.770Z,14.39
2022-09-07T04:12:50.514Z,14.51
2022-09-07T04:15:18.399Z,14.51
2022-09-07T04:17:46.388Z,14.45
2022-09-07T04:20:14.365Z,14.41
2022-09-07T04:22:43.134Z,14.63
2022-09-07T04:25:11.004Z,14.50
2022-09-07T04:27:40.330Z,14.58
2022-09-07T04:30:09.279Z,14.52
2022-09-07T04:32:38.743Z,14.49
2022-09-07T04:35:08.092Z,14.36
2022-09-07T04:37:36.094Z,14.39
2022-09-07T04:40:04.784Z,14.35
2022-09-07T04:42:32.780Z,14.46
2022-09-07T04:45:01.995Z,14.35
2022-09-07T04:47:30.657Z,14.42
2022-09-07T04:49:58.776Z,14.47
2022-09-07T04:52:26.675Z,14.56
2022-09-07T04:54:54.578Z,14.42
2022-09-07T04:57:25.799Z,14.57
2022-09-07T04:59:53.760Z,14.41
2022-09-07T05:02:23.174Z,14.36
2022-09-07T05:04:51.129Z,14.40
2022-09-07T05:07:19.201Z,14.47
2022-09-07T05:09:48.221Z,14.26
2022-09-07T05:12:16.335Z,14.22
2022-09-07T05:14:44.397Z,14.30
2022-09-07T05:17:12.373Z,14.35
2022-09-07T05:19:41.640Z,14.34
2022-09-07T05:22:09.752Z,14.35
2022-09-07T05:24:37.887Z,14.37
2022-09-07T05:27:06.267Z,14.15
2022-09-07T05:32:21.953Z,14.36
2022-09-07T05:34:54.203Z,14.33
2022-09-07T05:37:22.198Z,14.56
2022-09-07T05:39:55.062Z,14.70
2022-09-07T05:42:23.206Z,14.79
2022-09-07T05:44:51.232Z,14.93
2022-09-07T05:47:19.303Z,15.12
2022-09-07T05:49:47.416Z,14.90
2022-09-07T05:52:17.061Z,14.76
2022-09-07T05:54:44.882Z,14.94
2022-09-07T05:57:13.301Z,15.08
2022-09-07T05:59:41.578Z,15.06
2022-09-07T06:02:14.243Z,15.11
2022-09-07T06:04:42.881Z,15.35
2022-09-07T06:07:27.444Z,15.46
2022-09-07T06:12:49.027Z,15.20
2022-09-07T06:15:17.703Z,15.32
2022-09-07T06:17:45.756Z,15.50
2022-09-07T06:20:13.864Z,15.32
2022-09-07T06:22:41.851Z,15.52
2022-09-07T06:25:11.528Z,15.39
2022-09-07T06:27:39.428Z,15.62
2022-09-07T06:30:08.463Z,15.73
2022-09-07T06:32:45.579Z,15.81
2022-09-07T06:35:14.724Z,15.71
2022-09-07T06:37:43.423Z,15.80
2022-09-07T06:40:13.399Z,16.08
2022-09-07T06:42:41.701Z,15.96
2022-09-07T06:45:11.817Z,16.29
2022-09-07T06:47:40.452Z,16.51
2022-09-07T06:50:09.754Z,16.03
2022-09-07T06:55:28.658Z,16.28
2022-09-07T06:57:57.013Z,16.28
2022-09-07T07:00:25.151Z,16.26
2022-09-07T07:02:53.239Z,16.57
2022-09-07T07:05:21.363Z,16.62
2022-09-07T07:07:49.496Z,16.43
2022-09-07T07:10:22.185Z,16.70
2022-09-07T07:12:57.512Z,16.81
2022-09-07T07:15:28.482Z,17.05
2022-09-07T07:18:02.667Z,16.95
2022-09-07T07:20:38.305Z,17.21
2022-09-07T07:23:06.968Z,17.03
2022-09-07T07:25:36.061Z,17.30
2022-09-07T07:30:56.932Z,17.40
2022-09-07T07:33:25.753Z,17.15
2022-09-07T07:35:54.137Z,17.55
2022-09-07T07:44:00.512Z,17.53
2022-09-07T07:46:32.367Z,17.91
2022-09-07T07:49:00.765Z,17.97
2022-09-07T07:51:29.299Z,18.12
2022-09-07T07:53:57.820Z,18.36
2022-09-07T07:56:26.778Z,18.38
2022-09-07T07:58:55.152Z,18.28
2022-09-07T08:01:24.622Z,18.36
2022-09-07T08:03:53.079Z,18.48
2022-09-07T08:06:22.361Z,18.41
2022-09-07T08:08:50.336Z,18.20
2022-09-07T08:11:23.084Z,18.36
2022-09-07T08:13:52.140Z,18.44
2022-09-07T08:16:20.235Z,18.70
2022-09-07T08:18:49.706Z,18.85
2022-09-07T08:21:17.762Z,18.92
2022-09-07T08:23:45.935Z,19.01
2022-09-07T08:26:14.111Z,18.78
2022-09-07T08:28:45.505Z,18.91
2022-09-07T08:31:15.445Z,18.87
2022-09-07T08:33:44.021Z,19.04
2022-09-07T08:36:14.853Z,19.07
2022-09-07T08:38:43.075Z,19.35
2022-09-07T08:41:49.433Z,19.51
2022-09-07T08:44:23.200Z,19.41
2022-09-07T08:46:56.065Z,19.45
2022-09-07T08:49:34.487Z,19.74
2022-09-07T08:52:06.680Z,19.82
2022-09-07T08:54:34.971Z,19.81
2022-09-07T08:57:21.231Z,19.79
2022-09-07T08:59:56.312Z,19.93
2022-09-07T09:02:27.988Z,20.15
2022-09-07T09:07:56.937Z,20.36
2022-09-07T09:10:36.190Z,20.47
2022-09-07T09:13:15.830Z,20.53
2022-09-07T09:15:53.413Z,20.70
2022-09-07T09:18:41.163Z,20.71
2022-09-07T09:21:14.606Z,20.82
2022-09-07T09:23:45.686Z,20.96
2022-09-07T09:26:22.548Z,20.89
2022-09-07T09:28:53.144Z,20.99
2022-09-07T09:31:25.984Z,21.23
2022-09-07T09:34:10.265Z,21.41
2022-09-07T09:36:43.735Z,21.52
2022-09-07T09:39:32.059Z,21.65
2022-09-07T09:42:15.438Z,21.64
2022-09-07T09:44:45.503Z,21.80
2022-09-07T09:47:31.227Z,21.88
2022-09-07T09:50:02.535Z,22.01
2022-09-07T09:52:43.517Z,22.24
2022-09-07T09:55:40.642Z,22.27
2022-09-07T10:01:25.427Z,22.39
2022-09-07T10:06:27.923Z,22.92
2022-09-07T10:08:59.048Z,23.21
2022-09-07T10:14:37.161Z,23.66
2022-09-07T10:17:20.262Z,24.01
2022-09-07T10:19:49.617Z,24.13
2022-09-07T10:22:32.047Z,24.03
2022-09-07T10:25:01.159Z,24.33
2022-09-07T10:27:35.230Z,24.53
2022-09-07T10:30:07.820Z,24.32
2022-09-07T10:32:55.032Z,24.26
2022-09-07T10:35:28.028Z,24.55
2022-09-07T10:38:04.886Z,24.29
2022-09-07T10:40:36.165Z,23.90
2022-09-07T10:43:22.401Z,23.93
2022-09-07T10:49:19.955Z,23.76
2022-09-07T10:52:02.560Z,23.88
2022-09-07T10:54:39.673Z,23.77
2022-09-07T10:57:39.026Z,23.89
2022-09-07T11:00:13.369Z,23.89
2022-09-07T11:03:26.399Z,23.92
2022-09-07T11:06:09.685Z,24.03
2022-09-07T11:12:02.865Z,24.09
2022-09-07T11:14:37.843Z,24.09
2022-09-07T11:17:14.990Z,24.12
2022-09-07T11:19:47.999Z,24.01
2022-09-07T11:22:22.945Z,24.17
2022-09-07T11:27:48.902Z,24.48
2022-09-07T11:30:21.941Z,24.72
2022-09-07T11:32:57.410Z,24.71
2022-09-07T11:35:35.218Z,24.85
2022-09-07T11:38:14.176Z,25.01
2022-09-07T11:40:50.633Z,25.11
2022-09-07T11:43:23.608Z,25.20
2022-09-07T11:45:55.114Z,25.03
2022-09-07T11:48:32.034Z,25.23
2022-09-07T11:51:04.502Z,25.42
2022-09-07T11:53:36.830Z,25.31
2022-09-07T11:56:11.950Z,25.27
2022-09-07T11:58:55.653Z,24.97
2022-09-07T12:01:35.096Z,24.99
2022-09-07T12:04:24.827Z,24.54
2022-09-07T12:07:17.333Z,25.01
2022-09-07T12:09:59.525Z,25.23
2022-09-07T12:12:59.153Z,25.06
2022-09-07T12:15:34.729Z,25.06
2022-09-07T12:18:17.959Z,25.20
2022-09-07T12:20:49.191Z,25.27
2022-09-07T12:23:27.252Z,25.80
2022-09-07T12:26:34.146Z,26.44
2022-09-07T12:29:19.381Z,27.06
2022-09-07T12:31:59.290Z,26.64
2022-09-07T12:34:52.492Z,25.94
2022-09-07T12:37:44.669Z,26.15
2022-09-07T12:40:49.605Z,25.88
2022-09-07T12:43:37.008Z,26.10
2022-09-07T12:46:05.353Z,25.82
2022-09-07T12:48:47.692Z,25.38
2022-09-07T12:54:26.174Z,25.31
2022-09-07T12:59:58.999Z,25.29
2022-09-07T13:02:55.006Z,25.28
2022-09-07T13:05:38.989Z,25.22
2022-09-07T13:08:21.772Z,25.12
2022-09-07T13:10:51.162Z,24.98
2022-09-07T13:17:15.520Z,24.89
2022-09-07T13:19:53.314Z,24.89
2022-09-07T13:22:56.136Z,24.84
2022-09-07T13:25:48.079Z,24.81
2022-09-07T13:28:53.008Z,24.65
2022-09-07T13:31:49.538Z,24.63
2022-09-07T13:34:39.262Z,24.84
2022-09-07T13:37:18.556Z,24.70
2022-09-07T13:39:49.603Z,24.73
2022-09-07T13:42:19.813Z,24.78
2022-09-07T13:45:00.389Z,24.82
2022-09-07T13:47:53.027Z,24.86
2022-09-07T13:50:37.362Z,25.02
2022-09-07T13:53:35.181Z,25.04
2022-09-07T13:56:16.417Z,25.03
2022-09-07T13:58:48.077Z,25.20
2022-09-07T14:01:21.517Z,25.38
2022-09-07T14:03:55.202Z,25.54
2022-09-07T14:06:32.716Z,25.74
2022-09-07T14:09:04.795Z,25.56
2022-09-07T14:11:42.212Z,25.41
2022-09-07T14:14:16.461Z,25.38
2022-09-07T14:16:48.780Z,25.38
2022-09-07T14:19:20.782Z,25.26
2022-09-07T14:22:00.290Z,25.30
2022-09-07T14:24:31.749Z,25.41
2022-09-07T14:27:00.533Z,25.53
2022-09-07T14:29:33.706Z,25.53
2022-09-07T14:32:05.037Z,25.30
2022-09-07T14:34:35.784Z,25.26
2022-09-07T14:37:12.465Z,25.21
2022-09-07T14:39:43.295Z,25.34
2022-09-07T14:42:12.876Z,25.25
2022-09-07T14:44:44.929Z,25.20
2022-09-07T14:47:29.309Z,25.11
2022-09-07T14:50:05.595Z,25.09
2022-09-07T14:52:42.352Z,25.02
2022-09-07T14:55:28.242Z,25.00
2022-09-07T14:58:22.958Z,24.86
2022-09-07T15:03:57.302Z,24.85
2022-09-07T15:09:30.773Z,24.94
2022-09-07T15:12:18.038Z,24.98
2022-09-07T15:14:47.549Z,25.32
2022-09-07T15:20:36.738Z,25.76
2022-09-07T15:23:06.719Z,26.07
2022-09-07T15:25:35.969Z,25.70
2022-09-07T15:28:05.076Z,25.71
2022-09-07T15:30:33.608Z,25.65
2022-09-07T15:33:01.898Z,25.46
2022-09-07T15:35:30.050Z,25.69
2022-09-07T15:38:02.419Z,25.67
2022-09-07T15:41:03.641Z,25.56
2022-09-07T15:43:31.374Z,25.46
2022-09-07T15:45:59.446Z,25.52
2022-09-07T15:48:27.334Z,25.56
2022-09-07T15:51:03.430Z,25.39
2022-09-07T15:56:22.701Z,25.25
2022-09-07T15:58:53.614Z,25.28
2022-09-07T16:04:14.801Z,25.14
2022-09-07T16:06:43.046Z,25.08
2022-09-07T16:09:12.323Z,24.97
2022-09-07T16:11:43.248Z,24.73
2022-09-07T16:14:12.361Z,24.68
2022-09-07T16:19:28.426Z,24.61
2022-09-07T16:21:57.503Z,24.61
2022-09-07T16:24:28.315Z,24.47
2022-09-07T16:26:56.195Z,24.38
2022-09-07T16:29:24.710Z,24.28
2022-09-07T16:34:40.884Z,24.17
2022-09-07T16:37:08.879Z,23.99
2022-09-07T16:39:40.002Z,23.95
2022-09-07T16:42:08.953Z,23.88
2022-09-07T16:44:37.063Z,23.81
2022-09-07T16:47:07.999Z,23.84
2022-09-07T16:49:36.352Z,23.85
2022-09-07T16:52:10.610Z,23.72
2022-09-07T16:54:40.291Z,23.71
2022-09-07T16:57:08.073Z,23.68
2022-09-07T16:59:35.976Z,23.59
2022-09-07T17:02:03.787Z,23.55
2022-09-07T17:04:31.923Z,23.50
2022-09-07T17:06:59.867Z,23.48
2022-09-07T17:09:28.632Z,23.45
2022-09-07T17:11:57.824Z,23.41
2022-09-07T17:14:28.967Z,23.33
2022-09-07T17:16:57.132Z,23.31
2022-09-07T17:19:32.624Z,23.26
2022-09-07T17:22:01.099Z,23.22
2022-09-07T17:24:32.231Z,23.21
2022-09-07T17:27:05.989Z,23.15
2022-09-07T17:29:37.136Z,23.22
2022-09-07T17:34:54.122Z,23.42
2022-09-07T17:37:22.523Z,23.47
2022-09-07T17:39:50.519Z,23.22
2022-09-07T17:42:20.076Z,23.07
2022-09-07T17:44:52.712Z,22.78
2022-09-07T17:47:21.012Z,22.52
2022-09-07T17:49:49.035Z,22.19
2022-09-07T17:52:17.135Z,22.00
2022-09-07T17:54:45.407Z,21.96
2022-09-07T17:57:13.240Z,21.80
2022-09-07T18:02:37.723Z,21.81
2022-09-07T18:05:07.333Z,21.72
2022-09-07T18:07:35.978Z,21.52
2022-09-07T18:10:03.873Z,21.57
2022-09-07T18:12:32.711Z,21.23
2022-09-07T18:15:02.117Z,21.16
2022-09-07T18:17:30.143Z,21.06
2022-09-07T18:19:58.121Z,21.03
2022-09-07T18:22:26.004Z,21.09
2022-09-07T18:24:54.013Z,20.96
2022-09-07T18:27:21.955Z,20.87
2022-09-07T18:29:49.868Z,20.69
2022-09-07T18:32:19.204Z,20.60
2022-09-07T18:34:50.535Z,20.53
2022-09-07T18:37:19.515Z,20.59
2022-09-07T18:39:48.651Z,20.53
2022-09-07T18:42:16.856Z,20.56
2022-09-07T18:47:35.012Z,20.69
2022-09-07T18:50:02.984Z,20.72
2022-09-07T18:55:19.996Z,20.59
2022-09-07T18:57:47.919Z,20.63
2022-09-07T19:00:16.222Z,20.66
2022-09-07T19:02:50.409Z,20.64
2022-09-07T19:08:08.406Z,20.64
2022-09-07T19:10:37.216Z,20.67
2022-09-07T19:13:07.359Z,20.51
2022-09-07T19:15:38.599Z,20.61
2022-09-07T19:18:09.001Z,20.58
2022-09-07T19:20:37.360Z,20.59
2022-09-07T19:23:06.418Z,20.67
2022-09-07T19:25:34.405Z,20.63
2022-09-07T19:28:02.390Z,20.68
2022-09-07T19:30:30.433Z,20.74
2022-09-07T19:33:02.126Z,20.60
2022-09-07T19:35:37.006Z,20.59
2022-09-07T19:38:08.961Z,20.55
2022-09-07T19:40:36.946Z,20.55
2022-09-07T19:43:05.056Z,20.53
2022-09-07T19:45:33.695Z,20.44
2022-09-07T19:48:02.035Z,20.44
2022-09-07T19:50:30.035Z,20.39
2022-09-07T19:52:59.337Z,20.51
2022-09-07T19:55:28.180Z,20.48
2022-09-07T19:57:56.202Z,20.48
2022-09-07T20:00:24.713Z,20.45
2022-09-07T20:02:54.117Z,20.45
2022-09-07T20:05:29.077Z,20.52
2022-09-07T20:07:57.083Z,20.53
2022-09-07T20:10:26.434Z,20.46
2022-09-07T20:12:54.329Z,20.52
2022-09-07T20:15:24.037Z,20.58
2022-09-07T20:17:51.856Z,20.44
2022-09-07T20:20:21.079Z,20.51
2022-09-07T20:22:48.995Z,20.38
2022-09-07T20:25:17.022Z,20.35
2022-09-07T20:27:46.341Z,20.45
2022-09-07T20:30:14.560Z,20.33
2022-09-07T20:32:42.750Z,20.16
2022-09-07T20:35:11.091Z,20.06
2022-09-07T20:37:39.154Z,20.09
2022-09-07T20:40:08.307Z,20.01
2022-09-07T20:42:36.165Z,19.99
2022-09-07T20:45:06.104Z,20.05
2022-09-07T20:47:33.994Z,19.95
2022-09-07T20:50:01.886Z,19.91
2022-09-07T20:52:32.627Z,19.91
2022-09-07T20:55:01.052Z,19.82
2022-09-07T20:57:28.840Z,19.83
2022-09-07T20:59:56.880Z,19.79
2022-09-07T21:02:26.166Z,19.83
2022-09-07T21:04:54.088Z,19.73
2022-09-07T21:07:22.002Z,19.69
2022-09-07T21:09:50.308Z,19.77
2022-09-07T21:12:18.354Z,19.72
2022-09-07T21:14:46.803Z,19.67
2022-09-07T21:17:14.983Z,19.65
2022-09-07T21:19:44.491Z,19.65
2022-09-07T21:22:14.505Z,19.49
2022-09-07T21:24:42.411Z,19.57
2022-09-07T21:27:10.350Z,19.45
2022-09-07T21:29:38.231Z,19.39
2022-09-07T21:32:06.797Z,19.35
2022-09-07T21:34:34.683Z,19.38
2022-09-07T21:37:05.955Z,19.26
2022-09-07T21:39:33.844Z,19.36
2022-09-07T21:42:01.766Z,19.25
2022-09-07T21:44:29.630Z,19.29
2022-09-07T21:46:57.621Z,19.24
2022-09-07T21:49:25.687Z,19.31
2022-09-07T21:51:53.575Z,19.23
2022-09-07T21:54:22.736Z,19.21
2022-09-07T21:56:54.230Z,19.14
2022-09-07T21:59:21.983Z,19.08
2022-09-07T22:01:49.949Z,19.00
2022-09-07T22:04:17.927Z,19.05
2022-09-07T22:06:45.753Z,19.08
2022-09-07T22:09:13.564Z,19.06
2022-09-07T22:11:45.879Z,18.92
2022-09-07T22:14:15.656Z,18.99
2022-09-07T22:16:43.600Z,18.97
2022-09-07T22:19:23.195Z,19.04
2022-09-07T22:21:51.842Z,19.00
2022-09-07T22:24:19.598Z,18.80
2022-09-07T22:26:48.950Z,18.83
2022-09-07T22:29:16.714Z,18.84
2022-09-07T22:31:44.608Z,18.78
2022-09-07T22:34:12.460Z,18.91
2022-09-07T22:36:42.431Z,18.81
2022-09-07T22:39:13.139Z,18.71
2022-09-07T22:41:41.856Z,18.65
2022-09-07T22:44:15.126Z,18.55
2022-09-07T22:46:44.653Z,18.57
2022-09-07T22:49:13.341Z,18.71
2022-09-07T22:51:41.194Z,18.73
2022-09-07T22:54:09.061Z,18.69
2022-09-07T22:56:38.293Z,18.47
2022-09-07T22:59:08.414Z,18.37
2022-09-07T23:01:38.107Z,18.45
2022-09-07T23:04:06.834Z,18.27
2022-09-07T23:06:36.579Z,18.35
2022-09-07T23:09:06.711Z,18.31
2022-09-07T23:11:34.785Z,18.22
2022-09-07T23:14:04.915Z,18.21
2022-09-07T23:16:32.894Z,18.09
2022-09-07T23:19:02.133Z,17.96
2022-09-07T23:21:30.264Z,17.93
2022-09-07T23:23:59.644Z,17.95
2022-09-07T23:26:29.926Z,18.02
2022-09-07T23:28:59.526Z,18.08
2022-09-07T23:31:28.840Z,17.97
2022-09-07T23:33:57.405Z,18.07
2022-09-07T23:36:27.565Z,17.90
2022-09-07T23:38:56.212Z,17.80
2022-09-07T23:41:25.266Z,17.86
2022-09-07T23:43:53.757Z,17.79
2022-09-07T23:46:22.482Z,17.73
2022-09-07T23:48:50.918Z,17.79
2022-09-07T23:51:23.849Z,17.78
2022-09-07T23:53:53.842Z,17.78
2022-09-07T23:56:24.159Z,17.63
2022-09-07T23:58:51.932Z,17.75
